Time;durP1;ratioP1;P1;durP2;ratioP2;P2;SDS_P1;SDS_P2;PMS_P1;PMS_P2;Temp;Humidity;BMP_temperature;BMP_pressure;BME280_temperature;BME280_humidity;BME280_pressure;Samples;Min_cycle;Max_cycle;Signal;HPM_P1;HPM_P2
2022/11/23 00:00:42;;;;;;;2.93;1.70;;;11.30;70.60;;;-142.21;95.50;112049.66;5061305;28;20448;-75
2022/11/23 00:03:14;;;;;;;3.80;1.80;;;11.40;71.30;;;-142.21;95.51;112049.66;5069921;28;20872;-74
2022/11/23 00:05:42;;;;;;;2.13;1.30;;;11.30;70.30;;;-142.21;95.45;112049.66;5070275;28;20435;-75
2022/11/23 00:08:10;;;;;;;3.30;1.70;;;11.40;70.40;;;-142.21;95.45;112049.66;5073685;28;20981;-74
2022/11/23 00:10:37;;;;;;;4.33;2.17;;;11.30;71.10;;;-142.21;95.50;112049.66;5074412;28;20489;-75
2022/11/23 00:13:05;;;;;;;2.40;1.50;;;11.30;70.40;;;-142.21;95.25;112049.66;5075726;28;20458;-74
2022/11/23 00:15:32;;;;;;;3.77;1.77;;;11.30;70.30;;;-142.21;95.02;112049.66;5073865;28;20955;-75
2022/11/23 00:17:59;;;;;;;3.57;1.80;;;11.30;70.10;;;-142.21;94.82;112049.66;5074666;28;20444;-75
2022/11/23 00:20:26;;;;;;;6.47;1.50;;;11.20;70.20;;;-142.21;95.06;112049.66;5074184;28;20439;-75
2022/11/23 00:22:53;;;;;;;5.87;2.03;;;11.10;70.20;;;-142.21;95.21;112049.66;5064389;28;20443;-74
2022/11/23 00:25:22;;;;;;;3.07;1.80;;;11.10;70.40;;;-142.21;95.14;112049.66;5073285;28;20481;-74
2022/11/23 00:27:49;;;;;;;3.03;1.80;;;11.10;70.30;;;-142.21;95.20;112049.66;5074699;28;20439;-74
2022/11/23 00:30:17;;;;;;;4.43;1.73;;;11.10;70.30;;;-142.21;94.99;112049.66;5073482;28;20487;-74
2022/11/23 00:32:44;;;;;;;4.23;1.50;;;11.10;70.30;;;-142.21;94.74;112049.66;5073687;28;20462;-75
2022/11/23 00:35:11;;;;;;;5.00;1.43;;;11.00;70.20;;;-142.21;94.83;112049.66;5073645;28;20450;-73
2022/11/23 00:37:38;;;;;;;2.00;1.40;;;11.00;70.20;;;-142.21;94.06;112049.66;5073872;28;20983;-73
2022/11/23 00:40:07;;;;;;;6.07;1.63;;;11.10;70.00;;;-142.21;94.34;112049.66;5073813;28;20439;-74
2022/11/23 00:42:35;;;;;;;2.40;1.43;;;11.10;70.20;;;-142.21;94.14;112049.66;5072752;28;20466;-74
2022/11/23 00:45:02;;;;;;;4.30;2.00;;;11.10;70.10;;;-142.21;94.04;112049.66;5071291;28;20801;-74
2022/11/23 00:47:30;;;;;;;2.73;1.50;;;11.10;69.80;;;-142.21;93.96;112049.66;5073345;28;20464;-74
2022/11/23 00:49:57;;;;;;;3.73;1.57;;;11.10;70.00;;;-142.21;93.98;112049.66;5073849;28;20443;-74
2022/11/23 00:52:24;;;;;;;2.63;1.80;;;11.10;69.80;;;-142.21;93.73;112049.66;5072920;28;20516;-74
2022/11/23 00:54:51;;;;;;;1.90;1.33;;;11.10;69.70;;;-142.21;93.74;112049.66;5072919;28;20443;-75
2022/11/23 00:57:18;;;;;;;4.73;1.73;;;11.10;69.90;;;-142.21;93.91;112049.66;5073175;28;21022;-75
2022/11/23 00:59:47;;;;;;;4.00;1.57;;;11.10;69.60;;;-142.21;93.86;112049.66;5073559;28;20454;-74
2022/11/23 01:02:14;;;;;;;3.10;1.77;;;11.10;70.40;;;-142.21;94.04;112049.66;5073348;28;20530;-74
2022/11/23 01:04:41;;;;;;;3.23;1.47;;;11.20;69.60;;;-142.21;93.67;112049.66;5073211;28;20447;-75
2022/11/23 01:07:08;;;;;;;4.23;1.83;;;11.20;69.40;;;-142.21;94.04;112049.66;5072951;28;20449;-74
2022/11/23 01:09:35;;;;;;;3.00;1.57;;;11.30;69.50;;;-142.21;94.13;112049.66;5073868;28;20475;-75
2022/11/23 01:12:02;;;;;;;3.27;1.77;;;11.20;69.20;;;-142.21;93.96;112049.66;5073624;28;20491;-75
2022/11/23 01:14:29;;;;;;;7.33;2.07;;;11.20;69.10;;;-142.21;94.30;112049.66;5072847;28;20446;-75
2022/11/23 01:16:58;;;;;;;4.40;1.60;;;11.20;69.20;;;-142.21;94.30;112049.66;5072725;28;20530;-75
2022/11/23 01:19:25;;;;;;;3.03;1.67;;;11.20;69.20;;;-142.21;94.12;112049.66;5071772;28;20478;-75
2022/11/23 01:21:52;;;;;;;4.00;1.70;;;11.20;69.30;;;-142.21;94.26;112049.66;5073071;28;20527;-74
2022/11/23 01:24:22;;;;;;;3.00;1.63;;;11.10;69.40;;;-142.21;94.83;112049.66;5072395;28;20475;-75
2022/11/23 01:26:52;;;;;;;3.87;1.87;;;11.20;69.50;;;-142.21;95.42;112049.66;5073084;28;21011;-75
2022/11/23 01:29:19;;;;;;;4.87;1.80;;;11.20;69.50;;;-142.21;95.55;112049.66;5072022;28;20560;-73
2022/11/23 01:31:47;;;;;;;3.63;1.63;;;11.10;69.50;;;-142.21;96.07;112049.66;5073124;28;20490;-73
2022/11/23 01:34:16;;;;;;;5.73;1.80;;;11.10;69.70;;;-142.21;96.72;112049.66;5072938;28;20900;-74
2022/11/23 01:36:44;;;;;;;4.83;1.60;;;11.10;69.80;;;-142.21;97.10;112049.66;5073074;28;20477;-74
2022/11/23 01:39:12;;;;;;;3.67;1.87;;;11.00;69.80;;;-142.21;97.52;112049.66;5062188;28;20470;-74
2022/11/23 01:41:42;;;;;;;3.47;1.50;;;11.00;70.10;;;-142.21;97.88;112049.66;5072202;28;20448;-73
2022/11/23 01:44:30;;;;;;;1.57;1.30;;;10.90;70.40;;;-142.21;98.12;112049.66;5071942;28;20451;-74
2022/11/23 01:47:00;;;;;;;7.23;2.10;;;11.00;70.40;;;-142.21;97.93;112049.66;5072852;28;20439;-74
2022/11/23 01:49:35;;;;;;;2.70;1.50;;;10.90;70.30;;;-142.21;98.02;112049.66;5065419;28;20962;-74
2022/11/23 01:52:09;;;;;;;4.10;1.73;;;10.90;70.40;;;-142.21;98.48;112049.66;5072553;28;20823;-75
2022/11/23 01:54:43;;;;;;;3.93;1.93;;;10.90;70.60;;;-142.21;98.93;112049.66;5071842;28;20441;-75
2022/11/23 01:57:19;;;;;;;3.57;1.70;;;10.90;70.80;;;-142.21;99.06;112049.66;5072282;28;20804;-75
2022/11/23 01:59:48;;;;;;;4.13;1.60;;;10.90;70.80;;;-142.21;99.03;112049.66;5068676;28;20519;-75
2022/11/23 02:02:20;;;;;;;4.20;1.83;;;10.90;70.70;;;-142.21;99.08;112049.66;5071863;28;20447;-76
2022/11/23 02:04:51;;;;;;;4.40;2.00;;;10.90;70.80;;;-142.21;98.77;112049.66;5072583;28;20514;-75
2022/11/23 02:07:22;;;;;;;3.57;1.83;;;10.90;71.50;;;-142.21;99.17;112049.66;5072044;28;20927;-74
2022/11/23 02:09:50;;;;;;;4.27;2.17;;;10.80;71.00;;;-142.21;99.25;112049.66;5070518;28;20962;-75
2022/11/23 02:12:17;;;;;;;4.67;1.80;;;10.80;71.00;;;-142.21;97.83;112049.66;5071949;28;20483;-74
2022/11/23 02:14:46;;;;;;;3.33;1.70;;;10.70;70.50;;;-142.21;98.26;112049.66;5072153;28;20447;-74
2022/11/23 02:17:13;;;;;;;5.43;1.87;;;10.70;70.70;;;-142.21;97.73;112049.66;5072373;28;20821;-75
2022/11/23 02:19:52;;;;;;;2.57;1.43;;;10.60;70.70;;;-142.21;97.94;112049.66;5072731;28;20467;-74
2022/11/23 02:22:29;;;;;;;2.77;1.70;;;10.60;70.90;;;-142.21;98.25;112049.66;5071380;28;20457;-74
2022/11/23 02:24:56;;;;;;;3.13;1.50;;;10.50;71.00;;;-142.21;98.59;112049.66;5071746;28;20475;-74
2022/11/23 02:27:26;;;;;;;3.07;1.70;;;10.50;71.20;;;-142.21;99.06;112049.66;5071471;28;20697;-74
2022/11/23 02:29:56;;;;;;;4.37;1.70;;;10.50;71.60;;;-142.21;99.37;112049.66;5071138;28;20440;-75
2022/11/23 02:32:25;;;;;;;3.27;1.70;;;10.50;71.90;;;-142.21;99.47;112049.66;5071387;28;20490;-75
2022/11/23 02:34:52;;;;;;;2.27;1.90;;;10.50;71.90;;;-142.21;99.24;112049.66;5069167;28;20535;-75
2022/11/23 02:37:19;;;;;;;4.20;1.90;;;10.60;72.00;;;-142.21;98.40;112049.66;5068045;28;20456;-75
2022/11/23 02:39:51;;;;;;;4.03;1.53;;;10.50;71.50;;;-142.21;98.27;112049.66;5071877;28;20969;-74
2022/11/23 02:42:18;;;;;;;2.80;1.53;;;10.60;72.50;;;-142.21;98.01;112049.66;5070188;28;20436;-75
2022/11/23 02:44:56;;;;;;;4.20;1.83;;;10.50;71.60;;;-142.21;97.87;112049.66;5071322;28;20530;-75
2022/11/23 02:47:23;;;;;;;5.40;1.87;;;10.50;71.80;;;-142.21;97.46;112049.66;5070546;28;20944;-75
2022/11/23 02:49:50;;;;;;;3.57;1.67;;;10.40;71.40;;;-142.21;98.03;112049.66;5071674;28;20444;-74
2022/11/23 02:52:19;;;;;;;3.47;1.63;;;10.50;72.00;;;-142.21;97.79;112049.66;5071119;28;20475;-73
2022/11/23 02:54:46;;;;;;;4.40;1.80;;;10.50;71.90;;;-142.21;98.09;112049.66;5071331;28;20442;-74
2022/11/23 02:57:14;;;;;;;5.63;1.80;;;10.50;71.90;;;-142.21;97.57;112049.66;5068118;28;20447;-74
2022/11/23 02:59:41;;;;;;;4.53;1.70;;;10.50;71.60;;;-142.21;97.79;112049.66;5071271;28;20440;-74
2022/11/23 03:02:09;;;;;;;3.47;1.87;;;10.40;71.70;;;-142.21;98.25;112049.66;5071852;28;20443;-74
2022/11/23 03:04:36;;;;;;;5.20;1.73;;;10.40;72.00;;;-142.21;98.38;112049.66;5070159;28;20451;-74
2022/11/23 03:07:03;;;;;;;5.10;1.60;;;10.40;72.10;;;-142.21;98.98;112049.66;5071645;28;20458;-74
2022/11/23 03:09:31;;;;;;;4.03;1.97;;;10.30;72.40;;;-142.21;99.54;112049.66;5060387;28;20531;-74
2022/11/23 03:11:58;;;;;;;3.60;1.60;;;10.20;72.60;;;-142.21;99.04;112049.66;5066920;28;20835;-74
2022/11/23 03:14:25;;;;;;;3.63;1.73;;;10.20;72.50;;;-142.21;98.39;112049.66;5072404;28;20443;-74
2022/11/23 03:16:52;;;;;;;3.57;2.03;;;10.20;72.30;;;-142.21;98.60;112049.66;5071877;28;20458;-74
2022/11/23 03:19:21;;;;;;;6.10;1.50;;;10.30;72.30;;;-142.21;97.98;112049.66;5070679;28;20475;-74
2022/11/23 03:21:48;;;;;;;4.40;1.80;;;10.30;72.20;;;-142.21;97.62;112049.66;5071732;28;20451;-74
2022/11/23 03:24:16;;;;;;;2.77;1.30;;;10.30;72.00;;;-142.21;97.27;112049.66;5072485;28;20483;-74
2022/11/23 03:26:43;;;;;;;4.00;2.07;;;10.30;71.70;;;-142.21;97.50;112049.66;5072277;28;20447;-74
2022/11/23 03:29:14;;;;;;;2.97;1.57;;;10.40;71.70;;;-142.21;97.34;112049.66;5062144;28;20501;-74
2022/11/23 03:31:41;;;;;;;3.07;1.67;;;10.30;71.60;;;-142.21;97.54;112049.66;5071288;28;20487;-74
2022/11/23 03:34:09;;;;;;;3.40;1.70;;;10.30;71.60;;;-142.21;97.49;112049.66;5064135;28;20950;-74
2022/11/23 03:36:38;;;;;;;3.33;1.60;;;10.40;71.50;;;-142.21;97.56;112049.66;5070902;28;20451;-74
2022/11/23 03:39:05;;;;;;;6.23;1.90;;;10.40;71.60;;;-142.21;97.82;112049.66;5071497;28;20449;-74
2022/11/23 03:41:32;;;;;;;5.13;1.83;;;10.40;71.70;;;-142.21;98.29;112049.66;5070560;28;20443;-75
2022/11/23 03:43:59;;;;;;;2.67;1.60;;;10.40;71.70;;;-142.21;99.26;112049.66;5072095;28;20443;-74
2022/11/23 03:46:26;;;;;;;3.60;1.73;;;10.50;71.80;;;-142.21;98.95;112049.66;5051143;28;20448;-74
2022/11/23 03:48:53;;;;;;;3.00;1.70;;;10.50;71.60;;;-142.21;98.98;112049.66;5052286;28;20451;-74
2022/11/23 03:51:20;;;;;;;2.20;1.40;;;10.40;71.20;;;-142.21;98.80;112049.66;5051547;28;20490;-74
2022/11/23 03:53:48;;;;;;;3.27;1.90;;;10.50;71.20;;;-142.21;99.06;112049.66;5054577;28;20443;-74
2022/11/23 03:56:16;;;;;;;3.50;1.93;;;10.50;71.20;;;-142.21;99.23;112049.66;5070499;28;20947;-73
2022/11/23 03:58:43;;;;;;;5.20;1.73;;;10.40;71.20;;;-142.21;99.46;112049.66;5070506;28;20470;-74
2022/11/23 04:01:10;;;;;;;5.27;2.17;;;10.40;71.30;;;-142.21;99.65;112049.66;5070434;28;20452;-75
2022/11/23 04:03:37;;;;;;;4.63;1.93;;;10.30;71.30;;;-142.21;100.00;112049.66;5072568;28;20454;-75
2022/11/23 04:06:04;;;;;;;4.37;2.20;;;10.30;71.60;;;-142.21;100.00;112049.66;5071068;28;20451;-74
2022/11/23 04:08:32;;;;;;;3.27;1.90;;;10.30;71.70;;;-142.21;100.00;112049.66;5067847;28;20450;-74
2022/11/23 04:11:00;;;;;;;3.67;1.77;;;10.20;72.00;;;-142.21;100.00;112049.66;5070928;28;20543;-75
2022/11/23 04:13:27;;;;;;;4.23;1.77;;;10.20;72.40;;;-142.21;100.00;112049.66;5070869;28;20532;-75
2022/11/23 04:15:54;;;;;;;3.70;1.80;;;10.20;72.60;;;-142.21;100.00;112049.66;5070250;28;20534;-74
2022/11/23 04:18:22;;;;;;;2.27;1.93;;;10.20;72.60;;;-142.21;100.00;112049.66;5060243;28;20472;-75
2022/11/23 04:20:49;;;;;;;3.53;1.80;;;10.20;72.60;;;-142.21;100.00;112049.66;5071812;28;20446;-75
2022/11/23 04:23:16;;;;;;;2.90;1.80;;;10.20;72.50;;;-142.21;100.00;112049.66;5071681;28;20450;-74
2022/11/23 04:25:43;;;;;;;3.03;1.70;;;10.20;72.60;;;-142.21;100.00;112049.66;5070301;28;20497;-74
2022/11/23 04:28:12;;;;;;;3.47;2.10;;;10.20;72.50;;;-142.21;100.00;112049.66;5071066;28;20449;-74
2022/11/23 04:30:39;;;;;;;3.40;2.50;;;10.20;72.50;;;-142.21;100.00;112049.66;5069149;28;20447;-74
2022/11/23 04:33:06;;;;;;;4.67;2.00;;;10.20;72.40;;;-142.21;100.00;112049.66;5071596;28;20582;-76
2022/11/23 04:35:34;;;;;;;3.73;2.00;;;10.00;72.10;;;-142.21;100.00;112049.66;5070299;28;20470;-74
2022/11/23 04:38:01;;;;;;;4.30;1.73;;;10.00;72.30;;;-142.21;100.00;112049.66;5040679;28;20444;-75
2022/11/23 04:40:30;;;;;;;2.37;1.50;;;9.90;73.40;;;-142.21;99.75;112049.66;5060568;28;20451;-75
2022/11/23 04:42:58;;;;;;;3.13;1.53;;;10.00;72.00;;;-142.21;99.17;112049.66;5070351;28;20443;-75
2022/11/23 04:45:26;;;;;;;2.33;1.50;;;10.10;71.90;;;-142.21;98.35;112049.66;5069867;28;20453;-75
2022/11/23 04:47:53;;;;;;;2.23;1.40;;;10.10;71.30;;;-142.21;98.83;112049.66;5070544;28;20456;-75
2022/11/23 04:50:20;;;;;;;4.80;1.90;;;10.20;72.30;;;-142.21;99.27;112049.66;5070605;28;20454;-75
2022/11/23 04:52:47;;;;;;;3.47;1.63;;;10.20;71.60;;;-142.21;99.68;112049.66;5070729;28;20489;-75
2022/11/23 04:55:14;;;;;;;3.60;1.80;;;10.30;72.60;;;-142.21;99.18;112049.66;5072817;28;20449;-75
2022/11/23 04:57:41;;;;;;;2.57;1.40;;;10.30;71.60;;;-142.21;99.52;112049.66;5073550;28;20464;-74
2022/11/23 05:00:10;;;;;;;3.93;1.50;;;10.30;71.40;;;-142.21;98.88;112049.66;5073907;28;20554;-74
2022/11/23 05:02:39;;;;;;;2.13;1.70;;;10.30;71.00;;;-142.21;99.92;112049.66;5073103;28;20447;-75
2022/11/23 05:05:07;;;;;;;2.03;1.50;;;10.30;71.40;;;-142.21;100.00;112049.66;5071722;28;20451;-74
2022/11/23 05:07:34;;;;;;;3.60;1.90;;;10.30;71.70;;;-142.21;100.00;112049.66;5065879;28;20443;-73
2022/11/23 05:10:01;;;;;;;3.20;1.70;;;10.30;71.70;;;-142.21;100.00;112049.66;5073182;28;20534;-75
2022/11/23 05:12:28;;;;;;;5.10;2.00;;;10.30;71.90;;;-142.21;100.00;112049.66;5072952;28;20566;-75
2022/11/23 05:14:55;;;;;;;3.07;1.67;;;10.30;71.90;;;-142.21;100.00;112049.66;5073591;28;20447;-75
2022/11/23 05:17:23;;;;;;;5.73;1.93;;;10.30;72.30;;;-142.21;100.00;112049.66;5071948;28;20450;-75
2022/11/23 05:19:51;;;;;;;2.53;1.50;;;10.20;72.00;;;-142.21;100.00;112049.66;5057378;28;21037;-75
2022/11/23 05:22:18;;;;;;;4.20;1.83;;;10.20;71.90;;;-142.21;100.00;112049.66;5073168;28;20538;-75
2022/11/23 05:24:47;;;;;;;2.50;1.33;;;10.20;71.70;;;-142.21;100.00;112049.66;5072251;28;20475;-75
2022/11/23 05:27:14;;;;;;;3.03;1.60;;;10.20;71.90;;;-142.21;100.00;112049.66;5065260;28;20443;-74
2022/11/23 05:29:41;;;;;;;2.53;1.43;;;10.20;71.70;;;-142.21;100.00;112049.66;5070870;28;20537;-75
2022/11/23 05:32:08;;;;;;;2.20;1.53;;;10.10;71.80;;;-142.21;100.00;112049.66;5073128;28;20489;-74
2022/11/23 05:34:35;;;;;;;3.63;1.50;;;10.10;71.80;;;-142.21;100.00;112049.66;5073096;28;20542;-75
2022/11/23 05:37:04;;;;;;;3.37;2.00;;;10.10;71.80;;;-142.21;100.00;112049.66;5071652;28;20455;-75
2022/11/23 05:39:31;;;;;;;3.10;1.60;;;10.10;72.10;;;-142.21;100.00;112049.66;5072000;28;20530;-75
2022/11/23 05:41:58;;;;;;;2.10;1.47;;;10.00;72.40;;;-142.21;100.00;112049.66;5073331;28;20475;-74
2022/11/23 05:44:25;;;;;;;4.47;2.70;;;10.00;72.40;;;-142.21;100.00;112049.66;5071054;28;20534;-75
2022/11/23 05:46:53;;;;;;;4.27;1.90;;;9.90;73.60;;;-142.21;100.00;112049.66;5072923;28;20443;-75
2022/11/23 05:49:20;;;;;;;2.53;1.60;;;9.90;73.70;;;-142.21;100.00;112049.66;5072046;28;20447;-75
2022/11/23 05:51:47;;;;;;;3.07;1.80;;;9.90;73.80;;;-142.21;100.00;112049.66;5072226;28;20511;-75
2022/11/23 05:54:15;;;;;;;4.27;1.80;;;9.90;73.90;;;-142.21;100.00;112049.66;5072510;28;20451;-74
2022/11/23 05:56:42;;;;;;;4.77;2.23;;;9.90;73.70;;;-142.21;100.00;112049.66;5072023;28;20493;-74
2022/11/23 05:59:11;;;;;;;2.90;1.87;;;9.80;73.80;;;-142.21;100.00;112049.66;5072171;28;20546;-75
2022/11/23 06:01:38;;;;;;;4.40;1.80;;;9.80;73.80;;;-142.21;100.00;112049.66;5070636;28;20971;-75
2022/11/23 06:04:06;;;;;;;2.80;1.77;;;9.70;73.80;;;-142.21;100.00;112049.66;5072465;28;20443;-75
2022/11/23 06:06:33;;;;;;;3.30;1.90;;;9.70;73.60;;;-142.21;100.00;112049.66;5071924;28;20474;-75
2022/11/23 06:09:01;;;;;;;2.93;2.27;;;9.70;74.40;;;-142.21;100.00;112049.66;5072643;28;20458;-75
2022/11/23 06:11:30;;;;;;;4.03;1.87;;;9.60;73.30;;;-142.21;100.00;112049.66;5071365;28;20443;-75
2022/11/23 06:13:57;;;;;;;3.00;1.70;;;9.60;73.20;;;-142.21;100.00;112049.66;5068481;28;20443;-74
2022/11/23 06:16:24;;;;;;;4.03;2.10;;;9.60;73.40;;;-142.21;100.00;112049.66;5072141;28;20820;-74
2022/11/23 06:18:51;;;;;;;3.03;2.10;;;9.50;73.20;;;-142.21;100.00;112049.66;5070660;28;20538;-75
2022/11/23 06:21:18;;;;;;;7.53;2.40;;;9.50;73.10;;;-142.21;100.00;112049.66;5071396;28;20447;-74
2022/11/23 06:23:47;;;;;;;2.87;1.90;;;9.40;72.90;;;-142.21;100.00;112049.66;5071299;28;20955;-75
2022/11/23 06:26:15;;;;;;;2.77;1.97;;;9.40;72.90;;;-142.21;100.00;112049.66;5064090;28;20437;-75
2022/11/23 06:28:44;;;;;;;4.43;2.00;;;9.40;72.90;;;-142.21;100.00;112049.66;5068388;28;21007;-75
2022/11/23 06:31:11;;;;;;;2.57;1.97;;;9.30;72.90;;;-142.21;100.00;112049.66;5067185;28;20501;-75
2022/11/23 06:33:39;;;;;;;2.00;1.77;;;9.20;72.80;;;-142.21;100.00;112049.66;5071090;28;20887;-75
2022/11/23 06:36:08;;;;;;;4.03;2.90;;;9.20;73.00;;;-142.21;100.00;112049.66;5071525;28;20447;-76
2022/11/23 06:38:36;;;;;;;5.50;3.03;;;9.10;72.90;;;-142.21;100.00;112049.66;5071433;28;20463;-76
2022/11/23 06:41:03;;;;;;;5.63;2.83;;;9.10;72.70;;;-142.21;100.00;112049.66;5071979;28;20530;-72
2022/11/23 06:43:32;;;;;;;5.73;3.07;;;9.10;72.90;;;-142.21;100.00;112049.66;5069225;28;20780;-73
2022/11/23 06:46:05;;;;;;;4.30;2.73;;;9.00;72.60;;;-142.21;100.00;112049.66;5072402;28;20478;-74
2022/11/23 06:48:33;;;;;;;3.20;2.90;;;9.00;72.90;;;-142.21;100.00;112049.66;5070813;28;20435;-71
2022/11/23 06:51:05;;;;;;;5.90;3.20;;;9.00;72.90;;;-142.21;100.00;112049.66;5071728;28;20475;-73
2022/11/23 06:53:32;;;;;;;3.60;3.07;;;8.90;72.70;;;-142.21;100.00;112049.66;5071024;28;20510;-72
2022/11/23 06:56:01;;;;;;;5.17;2.97;;;8.90;72.60;;;-142.21;100.00;112049.66;5067950;28;20482;-72
2022/11/23 06:58:29;;;;;;;6.13;3.27;;;8.90;72.60;;;-142.21;100.00;112049.66;5070046;28;20451;-74
2022/11/23 07:01:02;;;;;;;3.27;2.87;;;8.80;72.50;;;-142.21;100.00;112049.66;5061002;28;20781;-72
2022/11/23 07:03:30;;;;;;;5.40;2.43;;;8.80;72.50;;;-142.21;100.00;112049.66;5068500;28;20936;-73
2022/11/23 07:05:57;;;;;;;5.53;2.63;;;8.80;72.60;;;-142.21;100.00;112049.66;5070685;28;20569;-72
2022/11/23 07:08:25;;;;;;;4.93;2.53;;;8.80;72.60;;;-142.21;100.00;112049.66;5071775;28;20471;-71
2022/11/23 07:11:01;;;;;;;3.93;2.63;;;8.80;72.70;;;-142.21;100.00;112049.66;5070430;28;20450;-72
2022/11/23 07:13:29;;;;;;;5.20;2.97;;;8.80;72.80;;;-142.21;100.00;112049.66;5069825;28;20475;-73
2022/11/23 07:15:58;;;;;;;4.23;3.00;;;8.70;72.70;;;-142.21;100.00;112049.66;5070702;28;21005;-72
2022/11/23 07:18:28;;;;;;;4.80;3.17;;;8.70;72.90;;;-142.21;100.00;112049.66;5071101;28;20550;-70
2022/11/23 07:20:57;;;;;;;4.80;2.90;;;8.60;72.80;;;-142.21;100.00;112049.66;5071108;28;20553;-71
2022/11/23 07:23:24;;;;;;;4.53;3.00;;;8.70;72.70;;;-142.21;100.00;112049.66;5070902;28;20443;-72
2022/11/23 07:25:51;;;;;;;2.93;2.47;;;8.70;72.90;;;-142.21;100.00;112049.66;5069811;28;20502;-72
2022/11/23 07:28:19;;;;;;;3.47;2.27;;;8.80;74.10;;;-142.21;100.00;112049.66;5070480;28;20439;-71
2022/11/23 07:30:46;;;;;;;2.70;2.47;;;8.70;73.30;;;-142.21;100.00;112049.66;5067119;28;20530;-71
2022/11/23 07:33:13;;;;;;;4.33;2.60;;;8.70;73.30;;;-142.21;100.00;112049.66;5061955;28;20574;-72
2022/11/23 07:35:42;;;;;;;3.63;2.53;;;8.80;73.30;;;-142.21;100.00;112049.66;5059642;28;20443;-71
2022/11/23 07:38:09;;;;;;;2.90;2.20;;;8.80;73.50;;;-142.21;100.00;112049.66;5071359;28;20530;-71
2022/11/23 07:40:38;;;;;;;2.63;2.10;;;8.80;73.30;;;-142.21;100.00;112049.66;5069416;28;20439;-72
2022/11/23 07:43:07;;;;;;;5.10;2.40;;;8.90;73.30;;;-142.21;100.00;112049.66;5068483;28;20440;-72
2022/11/23 07:45:36;;;;;;;3.20;2.37;;;8.90;73.20;;;-142.21;100.00;112049.66;5070420;28;20810;-74
2022/11/23 07:48:07;;;;;;;4.27;2.50;;;8.90;73.30;;;-142.21;100.00;112049.66;5069856;28;20478;-75
2022/11/23 07:50:36;;;;;;;3.87;2.40;;;9.00;73.60;;;-142.21;100.00;112049.66;5066082;28;20444;-73
2022/11/23 07:53:08;;;;;;;5.10;2.57;;;9.00;73.60;;;-142.21;100.00;112049.66;5064049;28;20491;-75
2022/11/23 07:55:35;;;;;;;3.03;2.40;;;9.10;73.70;;;-142.21;100.00;112049.66;5070079;28;20522;-74
2022/11/23 07:58:04;;;;;;;3.33;2.70;;;9.20;73.60;;;-142.21;100.00;112049.66;5070225;28;20467;-75
2022/11/23 08:00:32;;;;;;;3.23;2.47;;;9.30;73.70;;;-142.21;100.00;112049.66;5069507;28;20447;-75
2022/11/23 08:02:59;;;;;;;4.37;2.77;;;9.40;73.50;;;-142.21;100.00;112049.66;5070358;28;20508;-74
2022/11/23 08:05:27;;;;;;;4.33;3.10;;;9.50;74.10;;;-142.21;100.00;112049.66;5070405;28;20455;-75
2022/11/23 08:07:59;;;;;;;3.97;2.80;;;9.60;73.30;;;-142.21;100.00;112049.66;5034652;28;20447;-75
2022/11/23 08:10:29;;;;;;;2.90;2.60;;;9.80;73.30;;;-142.21;100.00;112049.66;5069705;28;20530;-75
2022/11/23 08:12:58;;;;;;;3.63;2.60;;;9.90;73.40;;;-142.21;100.00;112049.66;5068313;28;20511;-74
2022/11/23 08:15:27;;;;;;;3.93;2.37;;;10.00;72.20;;;-142.21;100.00;112049.66;5051497;28;20479;-75
2022/11/23 08:17:56;;;;;;;4.33;2.03;;;10.20;71.90;;;-142.21;100.00;112049.66;5069658;28;20455;-74
2022/11/23 08:20:24;;;;;;;3.30;2.40;;;10.30;72.60;;;-142.21;100.00;112049.66;5070417;28;20476;-74
2022/11/23 08:22:51;;;;;;;3.63;2.50;;;10.50;71.70;;;-142.21;99.83;112049.66;5069178;28;20451;-74
2022/11/23 08:25:19;;;;;;;3.40;2.47;;;10.70;70.90;;;-142.21;99.32;112049.66;5061075;28;20510;-74
2022/11/23 08:27:47;;;;;;;6.03;3.37;;;10.80;70.80;;;-142.21;98.77;112049.66;5065772;28;20530;-74
2022/11/23 08:30:16;;;;;;;5.53;3.00;;;11.00;70.40;;;-142.21;98.35;112049.66;5074182;28;21049;-75
2022/11/23 08:32:43;;;;;;;7.13;2.60;;;11.20;70.20;;;-142.21;95.14;112049.66;5073291;28;20982;-75
2022/11/23 08:35:10;;;;;;;5.23;2.90;;;11.30;69.10;;;-142.21;95.19;112049.66;5074309;28;20443;-75
2022/11/23 08:37:37;;;;;;;3.80;2.50;;;11.50;68.70;;;-142.21;92.84;112049.66;5073099;28;20534;-75
2022/11/23 08:40:06;;;;;;;4.90;2.33;;;11.70;67.90;;;-142.21;90.66;112049.66;5074293;28;20538;-74
2022/11/23 08:42:33;;;;;;;3.77;1.90;;;11.80;66.50;;;-142.21;90.31;112049.66;5073886;28;20534;-75
2022/11/23 08:45:04;;;;;;;3.30;2.10;;;12.00;66.70;;;-142.21;88.10;112049.66;5073899;28;20447;-75
2022/11/23 08:47:32;;;;;;;2.70;1.87;;;12.10;65.90;;;-142.21;86.04;112049.66;5074050;28;20510;-75
2022/11/23 08:49:59;;;;;;;3.40;2.10;;;12.20;65.10;;;-142.21;85.54;112049.66;5073309;28;20534;-74
2022/11/23 08:52:29;;;;;;;3.07;1.93;;;12.30;65.20;;;-142.21;86.01;112049.66;5072914;28;20447;-75
2022/11/23 08:54:56;;;;;;;3.27;1.73;;;12.50;65.20;;;-142.21;85.27;112049.66;5073436;28;20443;-75
2022/11/23 08:57:23;;;;;;;5.50;1.93;;;12.70;64.90;;;-142.21;81.99;112049.66;5073283;28;20447;-74
2022/11/23 08:59:51;;;;;;;5.03;1.80;;;12.80;63.50;;;-142.21;81.09;112049.66;5072997;28;20869;-74
2022/11/23 09:02:19;;;;;;;4.87;1.87;;;13.00;63.00;;;-142.21;77.80;112049.66;5073906;28;20477;-74
2022/11/23 09:04:47;;;;;;;3.40;2.03;;;13.20;61.40;;;-142.21;77.73;112049.66;5072617;28;20455;-74
2022/11/23 09:07:14;;;;;;;3.13;1.90;;;13.20;61.60;;;-142.21;75.59;112049.66;5073719;28;20447;-75
2022/11/23 09:09:41;;;;;;;2.83;1.83;;;13.40;60.80;;;-142.21;74.79;112049.66;5072921;28;20535;-74
2022/11/23 09:12:09;;;;;;;3.73;1.90;;;13.40;60.10;;;-142.21;72.92;112049.66;5073766;28;20444;-74
2022/11/23 09:14:36;;;;;;;4.27;1.90;;;13.40;59.70;;;-142.21;75.12;112049.66;5072502;28;20518;-75
2022/11/23 09:17:04;;;;;;;3.13;1.60;;;13.40;60.00;;;-142.21;75.25;112049.66;5073536;28;20501;-75
2022/11/23 09:19:32;;;;;;;5.97;2.17;;;13.60;60.70;;;-142.21;72.46;112049.66;5073154;28;20542;-74
2022/11/23 09:21:59;;;;;;;4.33;1.97;;;13.70;59.10;;;-142.21;70.78;112049.66;5072934;28;20447;-75
2022/11/23 09:24:27;;;;;;;3.90;1.80;;;13.90;59.10;;;-142.21;68.89;112049.66;5072892;28;20467;-75
2022/11/23 09:26:54;;;;;;;5.83;1.97;;;13.90;58.10;;;-142.21;70.09;112049.66;5072768;28;20443;-75
2022/11/23 09:29:21;;;;;;;5.53;1.80;;;14.00;58.70;;;-142.21;71.13;112049.66;5073492;28;20686;-74
2022/11/23 09:31:49;;;;;;;5.63;2.40;;;14.20;58.90;;;-142.21;70.34;112049.66;5072183;28;20955;-74
2022/11/23 09:34:17;;;;;;;3.80;2.10;;;14.40;59.00;;;-142.21;68.32;112049.66;5072897;28;20483;-75
2022/11/23 09:36:45;;;;;;;2.13;1.60;;;14.70;58.30;;;-142.21;66.34;112049.66;5072317;28;20573;-74
2022/11/23 09:39:14;;;;;;;4.57;2.30;;;14.80;57.30;;;-142.21;66.11;112049.66;5072514;28;20448;-75
2022/11/23 09:42:46;;;;;;;3.70;1.80;;;15.00;57.70;;;-142.21;64.76;112049.66;5072505;28;20498;-75
2022/11/23 09:45:26;;;;;;;3.37;2.03;;;15.10;55.90;;;-142.21;65.95;112049.66;4990230;28;20453;-75
2022/11/23 09:48:18;;;;;;;4.60;1.70;;;15.30;56.80;;;-142.21;65.39;112049.66;5010292;28;20883;-75
2022/11/23 09:50:49;;;;;;;4.83;2.03;;;15.50;56.70;;;-142.21;61.47;112049.66;5067154;28;20513;-75
2022/11/23 09:53:25;;;;;;;2.50;1.63;;;15.70;55.60;;;-142.21;61.66;112049.66;5072399;28;20520;-75
2022/11/23 09:55:56;;;;;;;2.60;1.77;;;15.80;55.50;;;-142.21;58.62;112049.66;5072277;28;20522;-75
2022/11/23 09:58:32;;;;;;;4.17;2.20;;;16.00;54.90;;;-142.21;56.94;112049.66;5072506;28;20470;-75
2022/11/23 10:01:05;;;;;;;3.07;2.10;;;16.20;54.30;;;-142.21;56.55;112049.66;5073038;28;20519;-75
2022/11/23 10:03:36;;;;;;;2.97;2.00;;;16.20;54.20;;;-142.21;57.75;112049.66;5069962;28;20447;-74